createdAt,value
2022-11-10T00:01:37.403Z,98499.31
2022-11-10T00:04:23.084Z,98501.59
2022-11-10T00:07:08.755Z,98504.28
2022-11-10T00:09:54.578Z,98506.97
2022-11-10T00:12:40.280Z,98506.31
2022-11-10T00:15:44.527Z,98507.34
2022-11-10T00:18:30.361Z,98508.00
2022-11-10T00:21:17.099Z,98509.19
2022-11-10T00:24:03.801Z,98509.44
2022-11-10T00:26:49.350Z,98518.09
2022-11-10T00:29:35.178Z,98513.56
2022-11-10T00:32:21.058Z,98515.59
2022-11-10T00:35:07.710Z,98521.19
2022-11-10T00:37:53.699Z,98524.69
2022-11-10T00:40:39.483Z,98522.22
2022-11-10T00:43:26.730Z,98521.38
2022-11-10T00:46:12.661Z,98527.97
2022-11-10T00:48:58.134Z,98523.63
2022-11-10T00:51:44.006Z,98531.66
2022-11-10T00:54:29.518Z,98531.66
2022-11-10T00:57:15.133Z,98538.06
2022-11-10T01:00:01.067Z,98535.78
2022-11-10T01:02:46.875Z,98545.88
2022-11-10T01:05:35.468Z,98540.69
2022-11-10T01:08:21.353Z,98540.09
2022-11-10T01:11:08.317Z,98553.50
2022-11-10T01:13:54.755Z,98555.34
2022-11-10T01:16:40.568Z,98552.66
2022-11-10T01:19:26.340Z,98553.88
2022-11-10T01:22:12.174Z,98550.38
2022-11-10T01:24:58.075Z,98564.63
2022-11-10T01:27:43.652Z,98572.25
2022-11-10T01:30:29.415Z,98566.66
2022-11-10T01:33:17.697Z,98568.31
2022-11-10T01:36:04.021Z,98563.78
2022-11-10T01:38:49.520Z,98571.81
2022-11-10T01:41:35.286Z,98573.69
2022-11-10T01:44:22.993Z,98585.25
2022-11-10T01:47:08.845Z,98579.22
2022-11-10T01:49:54.541Z,98580.06
2022-11-10T01:52:40.479Z,98578.63
2022-11-10T01:55:26.807Z,98578.63
2022-11-10T01:58:14.319Z,98594.72
2022-11-10T02:00:59.857Z,98595.09
2022-11-10T02:03:49.273Z,98602.13
2022-11-10T02:06:37.714Z,98602.13
2022-11-10T02:09:23.646Z,98602.13
2022-11-10T02:12:09.496Z,98609.34
2022-11-10T02:14:55.379Z,98610.19
2022-11-10T02:17:41.886Z,98616.56
2022-11-10T02:20:27.725Z,98613.88
2022-11-10T02:23:31.963Z,98614.72
2022-11-10T02:26:20.563Z,98610.19
2022-11-10T02:29:06.175Z,98618.59
2022-11-10T02:31:52.327Z,98617.16
2022-11-10T02:34:37.878Z,98621.69
2022-11-10T02:37:23.672Z,98617.16
2022-11-10T02:40:10.136Z,98616.31
2022-11-10T02:42:55.616Z,98618.34
2022-11-10T02:45:47.255Z,98619.38
2022-11-10T02:48:33.695Z,98620.41
2022-11-10T02:51:19.361Z,98621.63
2022-11-10T02:54:06.217Z,98623.66
2022-11-10T02:56:51.204Z,98632.91
2022-11-10T02:59:36.561Z,98630.44
2022-11-10T03:02:22.265Z,98632.50
2022-11-10T03:05:07.861Z,98633.31
2022-11-10T03:07:55.420Z,98646.53
2022-11-10T03:10:41.088Z,98645.72
2022-11-10T03:13:35.597Z,98655.59
2022-11-10T03:16:32.388Z,98654.78
2022-11-10T03:19:17.998Z,98661.16
2022-11-10T03:22:03.443Z,98662.19
2022-11-10T03:24:49.287Z,98667.53
2022-11-10T03:27:35.052Z,98663.84
2022-11-10T03:30:20.852Z,98678.91
2022-11-10T03:33:06.591Z,98682.63
2022-11-10T03:35:52.347Z,98690.00
2022-11-10T03:38:38.320Z,98692.69
2022-11-10T03:41:24.182Z,98686.91
2022-11-10T03:44:09.781Z,98694.28
2022-11-10T03:46:55.196Z,98702.53
2022-11-10T03:49:41.007Z,98706.22
2022-11-10T03:52:26.685Z,98715.28
2022-11-10T03:55:14.357Z,98719.00
2022-11-10T03:58:03.562Z,98727.59
2022-11-10T04:00:49.222Z,98723.25
2022-11-10T04:03:34.831Z,98723.66
2022-11-10T04:06:39.211Z,98727.09
2022-11-10T04:09:24.868Z,98730.31
2022-11-10T04:12:29.493Z,98740.59
2022-11-10T04:15:34.176Z,98736.16
2022-11-10T04:18:25.837Z,98734.66
2022-11-10T04:21:12.248Z,98728.03
2022-11-10T04:23:58.008Z,98737.44
2022-11-10T04:26:44.042Z,98740.84
2022-11-10T04:29:29.663Z,98745.19
2022-11-10T04:32:15.396Z,98750.91
2022-11-10T04:35:00.895Z,98746.78
2022-11-10T04:37:46.727Z,98754.63
2022-11-10T04:40:32.598Z,98760.53
2022-11-10T04:43:18.133Z,98770.16
2022-11-10T04:46:04.828Z,98772.09
2022-11-10T04:48:50.643Z,98769.31
2022-11-10T04:51:37.811Z,98771.16
2022-11-10T04:54:23.760Z,98784.28
2022-11-10T04:57:09.490Z,98779.63
2022-11-10T04:59:55.234Z,98784.53
2022-11-10T05:02:40.920Z,98786.38
2022-11-10T05:05:26.649Z,98791.28
2022-11-10T05:08:12.571Z,98799.09
2022-11-10T05:10:58.119Z,98794.19
2022-11-10T05:13:44.107Z,98800.28
2022-11-10T05:16:29.820Z,98799.28
2022-11-10T05:19:15.645Z,98799.91
2022-11-10T05:22:01.385Z,98808.94
2022-11-10T05:24:47.130Z,98812.28
2022-11-10T05:27:32.860Z,98815.78
2022-11-10T05:30:18.538Z,98808.09
2022-11-10T05:33:04.751Z,98813.72
2022-11-10T05:35:50.633Z,98812.84
2022-11-10T05:38:41.849Z,98812.53
2022-11-10T05:41:29.081Z,98818.41
2022-11-10T05:44:14.656Z,98816.13
2022-11-10T05:47:00.368Z,98818.41
2022-11-10T05:49:46.052Z,98825.94
2022-11-10T05:52:31.860Z,98832.44
2022-11-10T05:55:18.275Z,98845.00
2022-11-10T05:58:03.694Z,98851.53
2022-11-10T06:00:49.601Z,98862.59
2022-11-10T06:03:35.558Z,98867.44
2022-11-10T06:06:22.999Z,98868.50
2022-11-10T06:09:09.016Z,98872.53
2022-11-10T06:11:54.770Z,98880.25
2022-11-10T06:14:40.231Z,98879.94
2022-11-10T06:17:26.328Z,98886.31
2022-11-10T06:20:12.877Z,98894.13
2022-11-10T06:23:02.906Z,98901.16
2022-11-10T06:25:48.723Z,98904.66
2022-11-10T06:28:34.500Z,98908.34
2022-11-10T06:31:20.027Z,98906.03
2022-11-10T06:34:05.793Z,98908.38
2022-11-10T06:36:51.190Z,98916.09
2022-11-10T06:39:37.014Z,98919.78
2022-11-10T06:42:22.686Z,98940.50
2022-11-10T06:45:08.621Z,98938.66
2022-11-10T06:48:01.470Z,98940.81
2022-11-10T06:50:47.328Z,98950.16
2022-11-10T06:53:33.611Z,98953.63
2022-11-10T06:56:19.258Z,98962.09
2022-11-10T06:59:05.002Z,98963.75
2022-11-10T07:01:50.649Z,98968.53
2022-11-10T07:04:36.365Z,98982.38
2022-11-10T07:07:22.312Z,98986.34
2022-11-10T07:10:07.953Z,99012.69
2022-11-10T07:13:00.412Z,99031.41
2022-11-10T07:15:46.190Z,99032.00
2022-11-10T07:18:31.962Z,99034.56
2022-11-10T07:21:17.558Z,99047.56
2022-11-10T07:24:03.451Z,99056.88
2022-11-10T07:26:49.274Z,99062.44
2022-11-10T07:29:34.992Z,99063.19
2022-11-10T07:32:20.672Z,99075.72
2022-11-10T07:35:06.250Z,99074.59
2022-11-10T07:37:52.063Z,99081.00
2022-11-10T07:40:38.181Z,99080.63
2022-11-10T07:43:24.992Z,99090.03
2022-11-10T07:46:11.310Z,99096.22
2022-11-10T07:48:57.121Z,99104.19
2022-11-10T07:51:42.934Z,99106.50
2022-11-10T07:54:28.612Z,99116.16
2022-11-10T07:57:14.380Z,99117.38
2022-11-10T08:00:00.417Z,99117.03
2022-11-10T08:02:46.164Z,99121.56
2022-11-10T08:05:32.358Z,99132.00
2022-11-10T08:08:18.487Z,99130.72
2022-11-10T08:11:04.309Z,99134.69
2022-11-10T08:13:49.782Z,99145.66
2022-11-10T08:16:35.165Z,99161.47
2022-11-10T08:19:20.882Z,99151.75
2022-11-10T08:22:06.572Z,99162.13
2022-11-10T08:24:52.298Z,99161.56
2022-11-10T08:27:37.806Z,99170.28
2022-11-10T08:30:23.518Z,99171.09
2022-11-10T08:33:10.508Z,99184.88
2022-11-10T08:35:56.299Z,99190.19
2022-11-10T08:38:41.830Z,99189.31
2022-11-10T08:41:27.458Z,99186.31
2022-11-10T08:44:18.110Z,99190.66
2022-11-10T08:47:06.362Z,99198.72
2022-11-10T08:49:51.678Z,99216.31
2022-11-10T08:52:37.716Z,99227.69
2022-11-10T08:55:23.831Z,99224.13
2022-11-10T08:58:13.787Z,99223.34
2022-11-10T09:00:59.333Z,99230.66
2022-11-10T09:03:45.060Z,99248.66
2022-11-10T09:06:32.503Z,99250.75
2022-11-10T09:09:17.916Z,99252.88
2022-11-10T09:12:03.721Z,99257.44
2022-11-10T09:14:49.502Z,99259.81
2022-11-10T09:17:35.973Z,99268.47
2022-11-10T09:20:21.553Z,99264.53
2022-11-10T09:23:09.440Z,99267.69
2022-11-10T09:25:56.133Z,99269.53
2022-11-10T09:28:41.509Z,99267.22
2022-11-10T09:31:27.226Z,99271.22
2022-11-10T09:34:13.009Z,99275.59
2022-11-10T09:36:58.431Z,99282.63
2022-11-10T09:39:44.391Z,99272.88
2022-11-10T09:42:32.942Z,99278.75
2022-11-10T09:45:24.384Z,99289.47
2022-11-10T09:48:18.512Z,99299.03
2022-11-10T09:51:06.896Z,99309.94
2022-11-10T09:53:56.798Z,99307.78
2022-11-10T09:56:42.184Z,99314.91
2022-11-10T09:59:29.493Z,99325.44
2022-11-10T10:02:15.182Z,99326.56
2022-11-10T10:05:03.493Z,99334.25
2022-11-10T10:07:48.984Z,99343.03
2022-11-10T10:10:53.940Z,99352.41
2022-11-10T10:13:48.884Z,99347.47
2022-11-10T10:16:39.447Z,99345.63
2022-11-10T10:19:43.654Z,99368.97
2022-11-10T10:22:41.552Z,99350.09
2022-11-10T10:25:27.779Z,99339.97
2022-11-10T10:28:21.249Z,99343.50
2022-11-10T10:31:27.129Z,99348.66
2022-11-10T10:34:13.806Z,99338.69
2022-11-10T10:36:59.479Z,99349.72
2022-11-10T10:39:46.850Z,99363.44
2022-11-10T10:42:33.854Z,99349.19
2022-11-10T10:45:19.600Z,99341.38
2022-11-10T10:48:23.467Z,99337.13
2022-11-10T10:51:09.538Z,99336.56
2022-11-10T10:53:55.315Z,99331.06
2022-11-10T10:56:41.034Z,99334.31
2022-11-10T10:59:26.900Z,99332.00
2022-11-10T11:02:29.728Z,99341.28
2022-11-10T11:05:17.582Z,99333.50
2022-11-10T11:08:03.114Z,99333.06
2022-11-10T11:10:49.004Z,99335.94
2022-11-10T11:13:35.014Z,99322.34
2022-11-10T11:16:20.705Z,99324.75
2022-11-10T11:19:08.393Z,99333.38
2022-11-10T11:22:13.091Z,99329.72
2022-11-10T11:25:01.324Z,99330.19
2022-11-10T11:27:56.755Z,99332.31
2022-11-10T11:30:45.210Z,99335.66
2022-11-10T11:33:46.874Z,99326.59
2022-11-10T11:36:38.555Z,99326.78
2022-11-10T11:39:35.581Z,99328.72
2022-11-10T11:42:39.834Z,99337.22
2022-11-10T11:45:32.021Z,99333.41
2022-11-10T11:48:33.570Z,99330.69
2022-11-10T11:51:32.124Z,99330.69
2022-11-10T11:54:29.435Z,99330.28
2022-11-10T11:57:40.038Z,99327.47
2022-11-10T12:00:26.816Z,99326.22
2022-11-10T12:03:48.572Z,99317.91
2022-11-10T12:06:41.583Z,99315.84
2022-11-10T12:09:33.095Z,99314.06
2022-11-10T12:12:24.620Z,99314.69
2022-11-10T12:15:19.072Z,99302.88
2022-11-10T12:18:04.938Z,99302.75
2022-11-10T12:20:50.697Z,99308.38
2022-11-10T12:23:55.012Z,99303.06
2022-11-10T12:26:52.878Z,99298.78
2022-11-10T12:29:38.295Z,99294.25
2022-11-10T12:32:36.194Z,99279.28
2022-11-10T12:35:21.569Z,99287.13
2022-11-10T12:38:11.181Z,99285.16
2022-11-10T12:41:07.708Z,99292.88
2022-11-10T12:44:16.349Z,99287.75
2022-11-10T12:47:04.580Z,99294.25
2022-11-10T12:49:59.885Z,99300.91
2022-11-10T12:53:08.176Z,99295.59
2022-11-10T12:56:00.476Z,99293.91
2022-11-10T12:58:46.268Z,99287.13
2022-11-10T13:01:32.171Z,99277.09
2022-11-10T13:04:19.705Z,99281.03
2022-11-10T13:07:11.879Z,99279.19
2022-11-10T13:10:15.312Z,99271.53
2022-11-10T13:13:06.606Z,99261.34
2022-11-10T13:15:53.770Z,99266.25
2022-11-10T13:18:42.450Z,99263.50
2022-11-10T13:21:46.765Z,99268.31
2022-11-10T13:24:36.463Z,99263.56
2022-11-10T13:27:37.565Z,99273.72
2022-11-10T13:30:41.296Z,99267.31
2022-11-10T13:33:30.235Z,99272.81
2022-11-10T13:36:35.820Z,99268.38
2022-11-10T13:39:24.585Z,99268.09
2022-11-10T13:42:10.109Z,99276.16
2022-11-10T13:45:15.789Z,99273.47
2022-11-10T13:48:07.366Z,99267.47
2022-11-10T13:51:02.774Z,99268.47
2022-11-10T13:54:09.999Z,99265.13
2022-11-10T13:57:01.590Z,99267.34
2022-11-10T13:59:55.417Z,99263.31
2022-11-10T14:02:43.808Z,99263.97
2022-11-10T14:05:29.339Z,99261.28
2022-11-10T14:08:20.215Z,99254.84
2022-11-10T14:11:12.333Z,99255.91
2022-11-10T14:14:21.356Z,99254.22
2022-11-10T14:17:15.849Z,99264.31
2022-11-10T14:20:02.614Z,99255.59
2022-11-10T14:22:49.943Z,99247.63
2022-11-10T14:25:40.703Z,99248.88
2022-11-10T14:28:27.816Z,99257.13
2022-11-10T14:31:19.272Z,99261.84
2022-11-10T14:34:05.016Z,99250.44
2022-11-10T14:36:54.467Z,99260.16
2022-11-10T14:39:41.075Z,99268.22
2022-11-10T14:42:28.302Z,99279.19
2022-11-10T14:45:13.877Z,99273.81
2022-11-10T14:48:00.025Z,99276.03
2022-11-10T14:50:45.547Z,99271.66
2022-11-10T14:53:34.358Z,99274.94
2022-11-10T14:56:28.393Z,99272.59
2022-11-10T14:59:14.995Z,99273.13
2022-11-10T15:02:01.502Z,99274.16
2022-11-10T15:04:47.533Z,99280.38
2022-11-10T15:07:33.057Z,99282.41
2022-11-10T15:10:21.193Z,99286.47
2022-11-10T15:13:19.444Z,99283.72
2022-11-10T15:16:20.687Z,99279.06
2022-11-10T15:19:24.320Z,99280.63
2022-11-10T15:22:12.696Z,99278.13
2022-11-10T15:25:07.471Z,99291.75
2022-11-10T15:28:03.400Z,99288.41
2022-11-10T15:30:59.130Z,99285.34
2022-11-10T15:33:46.616Z,99297.44
2022-11-10T15:36:33.776Z,99301.31
2022-11-10T15:39:25.041Z,99304.22
2022-11-10T15:42:16.101Z,99305.56
2022-11-10T15:45:01.723Z,99303.97
2022-11-10T15:47:47.393Z,99309.44
2022-11-10T15:50:33.189Z,99312.19
2022-11-10T15:53:22.141Z,99309.00
2022-11-10T15:56:09.216Z,99303.53
2022-11-10T15:58:57.896Z,99308.59
2022-11-10T16:01:46.911Z,99314.47
2022-11-10T16:04:32.469Z,99312.53
2022-11-10T16:07:18.397Z,99314.50
2022-11-10T16:10:05.043Z,99317.91
2022-11-10T16:12:50.827Z,99306.59
2022-11-10T16:15:36.627Z,99304.00
2022-11-10T16:18:24.138Z,99295.66
2022-11-10T16:21:12.587Z,99298.31
2022-11-10T16:23:58.510Z,99310.34
2022-11-10T16:26:44.549Z,99308.34
2022-11-10T16:29:31.418Z,99301.69
2022-11-10T16:32:16.854Z,99308.03
2022-11-10T16:35:03.724Z,99306.06
2022-11-10T16:37:49.359Z,99322.13
2022-11-10T16:40:35.266Z,99313.41
2022-11-10T16:43:21.554Z,99312.44
2022-11-10T16:46:16.423Z,99321.47
2022-11-10T16:49:04.008Z,99336.25
2022-11-10T16:51:49.415Z,99331.88
2022-11-10T16:54:35.207Z,99329.53
2022-11-10T16:57:21.148Z,99331.91
2022-11-10T17:00:07.322Z,99331.91
2022-11-10T17:02:58.790Z,99331.06
2022-11-10T17:05:44.183Z,99323.72
2022-11-10T17:08:30.892Z,99319.53
2022-11-10T17:11:16.581Z,99313.16
2022-11-10T17:14:01.979Z,99315.84
2022-11-10T17:16:47.897Z,99326.56
2022-11-10T17:19:33.577Z,99332.59
2022-11-10T17:22:21.356Z,99337.97
2022-11-10T17:25:13.110Z,99338.13
2022-11-10T17:27:58.872Z,99344.47
2022-11-10T17:30:45.186Z,99345.47
2022-11-10T17:33:31.387Z,99354.34
2022-11-10T17:36:18.836Z,99363.41
2022-11-10T17:39:04.644Z,99362.56
2022-11-10T17:41:51.301Z,99367.09
2022-11-10T17:44:36.926Z,99373.44
2022-11-10T17:47:22.367Z,99368.44
2022-11-10T17:50:08.224Z,99363.56
2022-11-10T17:52:53.849Z,99368.06
2022-11-10T17:55:39.715Z,99376.09
2022-11-10T17:58:25.148Z,99377.09
2022-11-10T18:01:16.298Z,99374.59
2022-11-10T18:04:01.727Z,99376.09
2022-11-10T18:06:47.602Z,99370.09
2022-11-10T18:09:33.469Z,99358.34
2022-11-10T18:12:22.769Z,99364.75
2022-11-10T18:15:14.608Z,99365.91
2022-11-10T18:18:01.285Z,99356.34
2022-11-10T18:20:47.103Z,99369.06
2022-11-10T18:23:32.863Z,99360.84
2022-11-10T18:26:18.702Z,99365.03
2022-11-10T18:29:04.429Z,99369.19
2022-11-10T18:31:49.949Z,99368.03
2022-11-10T18:34:35.819Z,99372.00
2022-11-10T18:37:21.579Z,99370.97
2022-11-10T18:40:07.399Z,99371.63
2022-11-10T18:42:57.093Z,99366.94
2022-11-10T18:45:42.769Z,99359.59
2022-11-10T18:48:31.109Z,99364.13
2022-11-10T18:51:20.218Z,99356.22
2022-11-10T18:54:05.850Z,99360.72
2022-11-10T18:56:51.594Z,99371.56
2022-11-10T18:59:37.294Z,99373.94
2022-11-10T19:02:23.031Z,99390.16
2022-11-10T19:05:08.843Z,99394.31
2022-11-10T19:07:54.392Z,99397.31
2022-11-10T19:10:43.022Z,99409.34
2022-11-10T19:13:28.580Z,99404.94
2022-11-10T19:16:15.497Z,99417.25
2022-11-10T19:19:01.792Z,99421.41
2022-11-10T19:21:47.679Z,99423.69
2022-11-10T19:24:42.485Z,99432.50
2022-11-10T19:27:39.237Z,99431.16
2022-11-10T19:30:25.488Z,99440.50
2022-11-10T19:33:11.201Z,99438.13
2022-11-10T19:35:56.720Z,99446.13
2022-11-10T19:38:42.938Z,99441.50
2022-11-10T19:41:29.745Z,99446.28
2022-11-10T19:44:15.164Z,99464.16
2022-11-10T19:47:00.949Z,99466.16
2022-11-10T19:49:46.308Z,99473.78
2022-11-10T19:52:32.258Z,99465.41
2022-11-10T19:55:17.950Z,99462.16
2022-11-10T19:58:03.616Z,99460.28
2022-11-10T20:00:49.070Z,99468.28
2022-11-10T20:03:34.886Z,99474.09
2022-11-10T20:06:22.528Z,99484.16
2022-11-10T20:09:08.054Z,99482.78
2022-11-10T20:11:53.494Z,99490.09
2022-11-10T20:14:38.842Z,99490.41
2022-11-10T20:17:24.325Z,99492.38
2022-11-10T20:20:10.440Z,99489.00
2022-11-10T20:22:59.994Z,99487.38
2022-11-10T20:25:45.948Z,99492.69
2022-11-10T20:28:33.600Z,99494.34
2022-11-10T20:31:21.124Z,99495.19
2022-11-10T20:34:06.819Z,99494.34
2022-11-10T20:36:54.342Z,99490.03
2022-11-10T20:39:39.961Z,99490.19
2022-11-10T20:42:25.454Z,99498.78
2022-11-10T20:45:11.516Z,99501.91
2022-11-10T20:47:57.761Z,99495.56
2022-11-10T20:50:43.541Z,99503.81
2022-11-10T20:53:29.545Z,99493.00
2022-11-10T20:56:15.934Z,99501.69
2022-11-10T20:59:01.648Z,99501.69
2022-11-10T21:01:47.549Z,99493.97
2022-11-10T21:04:33.578Z,99489.94
2022-11-10T21:07:19.111Z,99497.41
2022-11-10T21:10:05.144Z,99501.22
2022-11-10T21:12:50.934Z,99513.88
2022-11-10T21:15:37.414Z,99510.50
2022-11-10T21:18:24.091Z,99509.81
2022-11-10T21:21:20.887Z,99502.72
2022-11-10T21:24:07.117Z,99504.97
2022-11-10T21:26:52.484Z,99502.63
2022-11-10T21:29:38.297Z,99506.06
2022-11-10T21:32:24.414Z,99501.56
2022-11-10T21:35:10.140Z,99504.09
2022-11-10T21:37:55.847Z,99500.44
2022-11-10T21:40:41.530Z,99498.63
2022-11-10T21:43:27.237Z,99506.75
2022-11-10T21:46:12.877Z,99519.81
2022-11-10T21:49:01.955Z,99515.31
2022-11-10T21:51:50.225Z,99516.72
2022-11-10T21:54:36.046Z,99517.88
2022-11-10T21:57:21.863Z,99514.53
2022-11-10T22:00:07.974Z,99510.63
2022-11-10T22:03:00.254Z,99519.63
2022-11-10T22:05:46.157Z,99513.72
2022-11-10T22:08:32.028Z,99519.91
2022-11-10T22:11:37.774Z,99516.63
2022-11-10T22:14:42.045Z,99517.09
2022-11-10T22:17:46.356Z,99514.75
2022-11-10T22:20:32.060Z,99503.13
2022-11-10T22:23:17.792Z,99522.78
2022-11-10T22:26:03.733Z,99528.81
2022-11-10T22:28:49.194Z,99524.28
2022-11-10T22:31:34.752Z,99517.13
2022-11-10T22:34:20.673Z,99525.13
2022-11-10T22:37:06.446Z,99532.28
2022-11-10T22:40:10.751Z,99537.09
2022-11-10T22:43:14.996Z,99527.72
2022-11-10T22:46:00.748Z,99527.41
2022-11-10T22:48:46.301Z,99535.13
2022-11-10T22:51:32.607Z,99540.16
2022-11-10T22:54:19.381Z,99533.31
2022-11-10T22:57:05.101Z,99531.16
2022-11-10T22:59:50.520Z,99531.16
2022-11-10T23:02:36.377Z,99533.31
2022-11-10T23:05:22.171Z,99533.44
2022-11-10T23:08:07.928Z,99533.97
2022-11-10T23:11:04.969Z,99528.09
2022-11-10T23:13:50.858Z,99537.06
2022-11-10T23:16:36.730Z,99534.06
2022-11-10T23:19:22.511Z,99536.88
2022-11-10T23:22:07.989Z,99534.38
2022-11-10T23:24:57.001Z,99545.34
2022-11-10T23:27:42.768Z,99542.16
2022-11-10T23:30:28.615Z,99546.06
2022-11-10T23:33:14.937Z,99540.22
2022-11-10T23:36:01.159Z,99537.97
2022-11-10T23:38:49.976Z,99539.13
2022-11-10T23:41:35.695Z,99540.94
2022-11-10T23:44:21.736Z,99541.09
2022-11-10T23:47:07.285Z,99535.88
2022-11-10T23:49:53.098Z,99536.59
2022-11-10T23:52:38.900Z,99525.94
2022-11-10T23:55:24.702Z,99532.78
2022-11-10T23:58:10.863Z,99533.63
